Twin Falls, Idaho
Current Conditions -  °F | °C
As of 8:53 AM on Sunday 21 Dec 2014 (Local Time) from KTWF Reporting Station
Light Rain Light Rain  
Wind Chill: 41°   Ceiling: 5500
Heat Index: 49°   Visibility: 10mi
Dew Point: 41°   Wind: 29mph
Humidity: 74%   Direction: 230°SW
Pressure: 29.85"   Gusts: 37mph
Location:  42.56°N, 114.46°W
Report Text: KTWF 211553Z 23025G32KT 10SM -RA FEW044 BKN055 OVC085 09/05 A2985 RMK AO2 PK WND 21036/1454 SLP092 P0000 T00940050
Loading
Personal Weather Stations






























Interactive Weather Map New forecast layout! Learn more

10-Day Weather Forecast

Advertisements
Track Severe Weather on mobile